sensor_id;sensor_type;location;lat;lon;timestamp;temperature;humidity
20915;DHT22;10617;52.032;5.298;2023-05-02T00:03:49;12.70;99.90
20915;DHT22;10617;52.032;5.298;2023-05-02T00:07:50;12.70;99.90
20915;DHT22;10617;52.032;5.298;2023-05-02T00:11:52;12.70;99.90
20915;DHT22;10617;52.032;5.298;2023-05-02T00:15:54;12.60;99.90
20915;DHT22;10617;52.032;5.298;2023-05-02T00:19:55;12.60;99.90
20915;DHT22;10617;52.032;5.298;2023-05-02T00:23:57;12.60;99.90
20915;DHT22;10617;52.032;5.298;2023-05-02T01:08:42;12.50;99.90
20915;DHT22;10617;52.032;5.298;2023-05-02T01:12:57;12.60;99.90
20915;DHT22;10617;52.032;5.298;2023-05-02T01:17:03;12.50;99.90
20915;DHT22;10617;52.032;5.298;2023-05-02T01:21:07;12.50;99.90
20915;DHT22;10617;52.032;5.298;2023-05-02T01:29:17;12.40;99.90
20915;DHT22;10617;52.032;5.298;2023-05-02T01:33:20;12.40;99.90
20915;DHT22;10617;52.032;5.298;2023-05-02T01:37:23;12.50;99.90
20915;DHT22;10617;52.032;5.298;2023-05-02T01:41:26;12.40;99.90
20915;DHT22;10617;52.032;5.298;2023-05-02T01:45:29;12.40;99.90
20915;DHT22;10617;52.032;5.298;2023-05-02T01:49:31;12.30;99.90
20915;DHT22;10617;52.032;5.298;2023-05-02T01:53:34;12.30;99.90
20915;DHT22;10617;52.032;5.298;2023-05-02T01:57:36;12.30;99.90
20915;DHT22;10617;52.032;5.298;2023-05-02T02:01:39;12.30;99.90
20915;DHT22;10617;52.032;5.298;2023-05-02T02:05:41;12.20;99.90
20915;DHT22;10617;52.032;5.298;2023-05-02T02:09:42;12.20;99.90
20915;DHT22;10617;52.032;5.298;2023-05-02T02:13:47;12.20;99.90
20915;DHT22;10617;52.032;5.298;2023-05-02T02:17:57;12.20;99.90
20915;DHT22;10617;52.032;5.298;2023-05-02T02:21:59;12.10;99.90
20915;DHT22;10617;52.032;5.298;2023-05-02T02:26:02;12.10;99.90
20915;DHT22;10617;52.032;5.298;2023-05-02T02:30:05;12.00;99.90
20915;DHT22;10617;52.032;5.298;2023-05-02T02:58:06;11.60;99.90
20915;DHT22;10617;52.032;5.298;2023-05-02T03:02:11;11.60;99.90
20915;DHT22;10617;52.032;5.298;2023-05-02T03:21:30;11.20;99.90
20915;DHT22;10617;52.032;5.298;2023-05-02T03:25:34;11.10;99.90
20915;DHT22;10617;52.032;5.298;2023-05-02T03:29:36;11.20;99.90
20915;DHT22;10617;52.032;5.298;2023-05-02T03:33:38;11.20;99.90
20915;DHT22;10617;52.032;5.298;2023-05-02T03:37:39;11.10;99.90
20915;DHT22;10617;52.032;5.298;2023-05-02T03:41:41;11.10;99.90
20915;DHT22;10617;52.032;5.298;2023-05-02T03:45:44;11.10;99.90
20915;DHT22;10617;52.032;5.298;2023-05-02T03:49:48;11.10;99.90
20915;DHT22;10617;52.032;5.298;2023-05-02T03:58:53;11.00;99.90
20915;DHT22;10617;52.032;5.298;2023-05-02T04:02:55;10.90;99.90
20915;DHT22;10617;52.032;5.298;2023-05-02T04:06:56;10.90;99.90
20915;DHT22;10617;52.032;5.298;2023-05-02T04:10:58;10.90;99.90
20915;DHT22;10617;52.032;5.298;2023-05-02T04:15:00;10.80;99.90
20915;DHT22;10617;52.032;5.298;2023-05-02T04:19:01;10.80;99.90
20915;DHT22;10617;52.032;5.298;2023-05-02T04:23:03;10.70;99.90
20915;DHT22;10617;52.032;5.298;2023-05-02T04:27:04;10.60;99.90
20915;DHT22;10617;52.032;5.298;2023-05-02T04:31:06;10.60;99.90
20915;DHT22;10617;52.032;5.298;2023-05-02T04:35:08;10.50;99.90
20915;DHT22;10617;52.032;5.298;2023-05-02T04:43:53;10.50;99.90
20915;DHT22;10617;52.032;5.298;2023-05-02T04:47:55;10.40;99.90
20915;DHT22;10617;52.032;5.298;2023-05-02T04:51:56;10.40;99.90
20915;DHT22;10617;52.032;5.298;2023-05-02T04:55:58;10.50;99.90
20915;DHT22;10617;52.032;5.298;2023-05-02T05:00:00;10.50;99.90
20915;DHT22;10617;52.032;5.298;2023-05-02T05:04:02;10.50;99.90
20915;DHT22;10617;52.032;5.298;2023-05-02T05:08:04;10.60;99.90
20915;DHT22;10617;52.032;5.298;2023-05-02T05:12:05;10.60;99.90
20915;DHT22;10617;52.032;5.298;2023-05-02T05:16:08;10.60;99.90
20915;DHT22;10617;52.032;5.298;2023-05-02T05:20:09;10.70;99.90
20915;DHT22;10617;52.032;5.298;2023-05-02T05:24:11;10.70;99.90
20915;DHT22;10617;52.032;5.298;2023-05-02T05:28:13;10.70;99.90
20915;DHT22;10617;52.032;5.298;2023-05-02T05:32:15;10.70;99.90
20915;DHT22;10617;52.032;5.298;2023-05-02T05:36:16;10.70;99.90
20915;DHT22;10617;52.032;5.298;2023-05-02T05:40:18;10.80;99.90
20915;DHT22;10617;52.032;5.298;2023-05-02T05:44:21;10.80;99.90
20915;DHT22;10617;52.032;5.298;2023-05-02T05:48:23;10.90;99.90
20915;DHT22;10617;52.032;5.298;2023-05-02T05:52:25;11.10;99.90
20915;DHT22;10617;52.032;5.298;2023-05-02T05:56:27;11.20;99.90
20915;DHT22;10617;52.032;5.298;2023-05-02T06:00:28;11.30;99.90
20915;DHT22;10617;52.032;5.298;2023-05-02T06:04:30;11.20;99.90
20915;DHT22;10617;52.032;5.298;2023-05-02T06:08:32;11.20;99.90
20915;DHT22;10617;52.032;5.298;2023-05-02T06:12:33;11.20;99.90
20915;DHT22;10617;52.032;5.298;2023-05-02T06:16:35;11.20;99.90
20915;DHT22;10617;52.032;5.298;2023-05-02T06:20:37;11.20;99.90
20915;DHT22;10617;52.032;5.298;2023-05-02T06:24:38;11.20;99.90
20915;DHT22;10617;52.032;5.298;2023-05-02T06:28:40;11.20;99.90
20915;DHT22;10617;52.032;5.298;2023-05-02T06:32:42;11.30;99.90
20915;DHT22;10617;52.032;5.298;2023-05-02T06:36:44;11.40;99.90
20915;DHT22;10617;52.032;5.298;2023-05-02T06:40:46;11.40;99.90
20915;DHT22;10617;52.032;5.298;2023-05-02T06:44:48;11.60;99.90
20915;DHT22;10617;52.032;5.298;2023-05-02T06:48:51;11.70;99.90
20915;DHT22;10617;52.032;5.298;2023-05-02T06:52:53;11.80;99.90
20915;DHT22;10617;52.032;5.298;2023-05-02T06:56:54;11.90;99.90
20915;DHT22;10617;52.032;5.298;2023-05-02T07:00:56;12.20;99.90
20915;DHT22;10617;52.032;5.298;2023-05-02T07:04:58;12.20;99.90
20915;DHT22;10617;52.032;5.298;2023-05-02T07:08:59;12.30;99.90
20915;DHT22;10617;52.032;5.298;2023-05-02T07:13:01;12.20;99.80
20915;DHT22;10617;52.032;5.298;2023-05-02T07:17:05;12.10;99.70
20915;DHT22;10617;52.032;5.298;2023-05-02T07:21:07;12.00;99.50
20915;DHT22;10617;52.032;5.298;2023-05-02T07:25:09;11.90;99.70
20915;DHT22;10617;52.032;5.298;2023-05-02T07:29:10;11.90;99.90
20915;DHT22;10617;52.032;5.298;2023-05-02T07:33:13;12.00;99.90
20915;DHT22;10617;52.032;5.298;2023-05-02T07:37:15;12.20;99.90
20915;DHT22;10617;52.032;5.298;2023-05-02T07:41:17;12.40;99.90
20915;DHT22;10617;52.032;5.298;2023-05-02T07:45:18;12.40;99.90
20915;DHT22;10617;52.032;5.298;2023-05-02T07:49:20;12.50;99.90
20915;DHT22;10617;52.032;5.298;2023-05-02T07:53:22;12.60;99.90
20915;DHT22;10617;52.032;5.298;2023-05-02T07:57:24;12.70;99.90
20915;DHT22;10617;52.032;5.298;2023-05-02T08:01:26;12.70;99.90
20915;DHT22;10617;52.032;5.298;2023-05-02T08:05:29;12.70;99.90
20915;DHT22;10617;52.032;5.298;2023-05-02T08:09:30;12.70;99.90
20915;DHT22;10617;52.032;5.298;2023-05-02T08:13:32;12.80;99.90
20915;DHT22;10617;52.032;5.298;2023-05-02T08:17:33;12.80;99.90
20915;DHT22;10617;52.032;5.298;2023-05-02T08:21:35;12.70;99.90
20915;DHT22;10617;52.032;5.298;2023-05-02T08:25:37;12.70;99.70
20915;DHT22;10617;52.032;5.298;2023-05-02T08:29:38;12.70;99.60
20915;DHT22;10617;52.032;5.298;2023-05-02T08:33:40;12.70;99.30
20915;DHT22;10617;52.032;5.298;2023-05-02T08:37:42;12.60;99.30
20915;DHT22;10617;52.032;5.298;2023-05-02T08:41:43;12.70;99.80
20915;DHT22;10617;52.032;5.298;2023-05-02T08:45:45;12.80;99.70
20915;DHT22;10617;52.032;5.298;2023-05-02T08:49:46;12.80;99.50
20915;DHT22;10617;52.032;5.298;2023-05-02T08:53:49;12.80;99.60
20915;DHT22;10617;52.032;5.298;2023-05-02T08:57:51;12.80;99.70
20915;DHT22;10617;52.032;5.298;2023-05-02T09:01:54;12.90;99.60
20915;DHT22;10617;52.032;5.298;2023-05-02T09:06:06;13.00;99.40
20915;DHT22;10617;52.032;5.298;2023-05-02T09:10:08;13.20;99.50
20915;DHT22;10617;52.032;5.298;2023-05-02T09:14:13;13.30;98.60
20915;DHT22;10617;52.032;5.298;2023-05-02T09:18:18;13.60;98.90
20915;DHT22;10617;52.032;5.298;2023-05-02T09:22:21;13.70;98.30
20915;DHT22;10617;52.032;5.298;2023-05-02T09:30:28;13.90;98.70
20915;DHT22;10617;52.032;5.298;2023-05-02T09:34:36;14.00;98.50
20915;DHT22;10617;52.032;5.298;2023-05-02T09:38:40;14.10;98.40
20915;DHT22;10617;52.032;5.298;2023-05-02T09:42:41;14.10;97.50
20915;DHT22;10617;52.032;5.298;2023-05-02T09:46:47;14.10;97.10
20915;DHT22;10617;52.032;5.298;2023-05-02T09:50:49;14.20;97.60
20915;DHT22;10617;52.032;5.298;2023-05-02T09:54:50;14.30;97.70
20915;DHT22;10617;52.032;5.298;2023-05-02T09:59:12;14.40;96.90
20915;DHT22;10617;52.032;5.298;2023-05-02T10:03:15;14.70;98.40
20915;DHT22;10617;52.032;5.298;2023-05-02T10:07:17;14.80;96.40
20915;DHT22;10617;52.032;5.298;2023-05-02T10:11:19;14.90;98.20
20915;DHT22;10617;52.032;5.298;2023-05-02T10:15:22;15.30;96.50
20915;DHT22;10617;52.032;5.298;2023-05-02T10:19:38;15.60;96.50
20915;DHT22;10617;52.032;5.298;2023-05-02T10:23:42;15.70;96.20
20915;DHT22;10617;52.032;5.298;2023-05-02T10:27:46;16.00;96.20
20915;DHT22;10617;52.032;5.298;2023-05-02T10:31:48;16.10;97.70
20915;DHT22;10617;52.032;5.298;2023-05-02T10:35:50;16.30;97.00
20915;DHT22;10617;52.032;5.298;2023-05-02T10:39:52;16.50;93.30
20915;DHT22;10617;52.032;5.298;2023-05-02T10:43:54;16.20;95.20
20915;DHT22;10617;52.032;5.298;2023-05-02T10:48:14;16.50;96.10
20915;DHT22;10617;52.032;5.298;2023-05-02T10:52:32;17.10;95.70
20915;DHT22;10617;52.032;5.298;2023-05-02T10:56:34;17.20;95.60
20915;DHT22;10617;52.032;5.298;2023-05-02T11:00:36;17.20;95.20
20915;DHT22;10617;52.032;5.298;2023-05-02T11:04:57;17.50;99.90
20915;DHT22;10617;52.032;5.298;2023-05-02T11:13:47;17.80;94.40
20915;DHT22;10617;52.032;5.298;2023-05-02T11:18:14;18.00;98.00
20915;DHT22;10617;52.032;5.298;2023-05-02T11:26:21;17.90;99.90
20915;DHT22;10617;52.032;5.298;2023-05-02T11:30:39;18.20;97.10
20915;DHT22;10617;52.032;5.298;2023-05-02T11:34:42;18.40;99.10
20915;DHT22;10617;52.032;5.298;2023-05-02T11:38:44;19.00;96.90
20915;DHT22;10617;52.032;5.298;2023-05-02T11:42:46;19.30;98.10
20915;DHT22;10617;52.032;5.298;2023-05-02T11:46:47;19.40;99.50
20915;DHT22;10617;52.032;5.298;2023-05-02T11:50:53;19.30;99.90
20915;DHT22;10617;52.032;5.298;2023-05-02T11:54:55;19.20;98.00
20915;DHT22;10617;52.032;5.298;2023-05-02T11:59:01;19.40;98.80
20915;DHT22;10617;52.032;5.298;2023-05-02T12:03:03;19.70;94.50
20915;DHT22;10617;52.032;5.298;2023-05-02T12:07:06;19.90;99.10
20915;DHT22;10617;52.032;5.298;2023-05-02T12:11:14;20.10;99.90
20915;DHT22;10617;52.032;5.298;2023-05-02T12:15:18;20.40;99.90
20915;DHT22;10617;52.032;5.298;2023-05-02T12:19:20;20.20;99.90
20915;DHT22;10617;52.032;5.298;2023-05-02T12:23:23;20.20;99.90
20915;DHT22;10617;52.032;5.298;2023-05-02T12:27:25;20.00;99.90
20915;DHT22;10617;52.032;5.298;2023-05-02T12:31:27;19.70;98.70
20915;DHT22;10617;52.032;5.298;2023-05-02T12:35:32;19.60;99.10
20915;DHT22;10617;52.032;5.298;2023-05-02T12:43:48;19.50;92.80
20915;DHT22;10617;52.032;5.298;2023-05-02T12:47:49;19.50;97.80
20915;DHT22;10617;52.032;5.298;2023-05-02T12:51:52;19.60;94.30
20915;DHT22;10617;52.032;5.298;2023-05-02T12:56:00;19.60;92.50
20915;DHT22;10617;52.032;5.298;2023-05-02T13:00:03;20.10;97.60
20915;DHT22;10617;52.032;5.298;2023-05-02T13:04:05;20.60;96.90
20915;DHT22;10617;52.032;5.298;2023-05-02T13:08:06;20.60;96.00
20915;DHT22;10617;52.032;5.298;2023-05-02T13:12:08;20.60;93.60
20915;DHT22;10617;52.032;5.298;2023-05-02T13:16:10;20.50;97.10
20915;DHT22;10617;52.032;5.298;2023-05-02T13:20:12;20.30;93.00
20915;DHT22;10617;52.032;5.298;2023-05-02T13:24:13;20.10;94.00
20915;DHT22;10617;52.032;5.298;2023-05-02T13:28:15;20.00;92.90
20915;DHT22;10617;52.032;5.298;2023-05-02T13:32:17;20.00;93.10
20915;DHT22;10617;52.032;5.298;2023-05-02T13:36:19;19.70;90.00
20915;DHT22;10617;52.032;5.298;2023-05-02T13:40:20;19.70;90.00
20915;DHT22;10617;52.032;5.298;2023-05-02T13:44:22;19.90;88.10
20915;DHT22;10617;52.032;5.298;2023-05-02T13:48:24;20.60;90.70
20915;DHT22;10617;52.032;5.298;2023-05-02T13:52:25;21.40;88.50
20915;DHT22;10617;52.032;5.298;2023-05-02T13:56:27;21.90;90.50
20915;DHT22;10617;52.032;5.298;2023-05-02T14:00:29;22.50;92.60
20915;DHT22;10617;52.032;5.298;2023-05-02T14:04:31;23.30;95.40
20915;DHT22;10617;52.032;5.298;2023-05-02T14:08:32;23.40;94.30
20915;DHT22;10617;52.032;5.298;2023-05-02T14:12:34;23.60;96.40
20915;DHT22;10617;52.032;5.298;2023-05-02T14:16:35;23.90;87.80
20915;DHT22;10617;52.032;5.298;2023-05-02T14:20:37;24.30;92.10
20915;DHT22;10617;52.032;5.298;2023-05-02T14:24:39;24.00;92.80
20915;DHT22;10617;52.032;5.298;2023-05-02T14:28:40;23.40;90.60
20915;DHT22;10617;52.032;5.298;2023-05-02T14:32:42;23.20;93.40
20915;DHT22;10617;52.032;5.298;2023-05-02T14:36:44;23.00;88.50
20915;DHT22;10617;52.032;5.298;2023-05-02T14:40:46;22.90;89.30
20915;DHT22;10617;52.032;5.298;2023-05-02T14:44:47;23.00;91.00
20915;DHT22;10617;52.032;5.298;2023-05-02T14:48:49;23.70;91.00
20915;DHT22;10617;52.032;5.298;2023-05-02T14:52:51;24.00;89.50
20915;DHT22;10617;52.032;5.298;2023-05-02T14:56:52;24.40;90.90
20915;DHT22;10617;52.032;5.298;2023-05-02T15:00:54;24.70;87.60
20915;DHT22;10617;52.032;5.298;2023-05-02T15:04:56;24.90;91.70
20915;DHT22;10617;52.032;5.298;2023-05-02T15:08:57;25.20;92.20
20915;DHT22;10617;52.032;5.298;2023-05-02T15:12:59;25.40;91.00
20915;DHT22;10617;52.032;5.298;2023-05-02T15:17:01;25.30;94.80
20915;DHT22;10617;52.032;5.298;2023-05-02T15:21:02;25.30;87.00
20915;DHT22;10617;52.032;5.298;2023-05-02T15:25:04;25.70;92.90
20915;DHT22;10617;52.032;5.298;2023-05-02T15:29:06;25.90;85.70
20915;DHT22;10617;52.032;5.298;2023-05-02T15:33:08;26.20;83.40
20915;DHT22;10617;52.032;5.298;2023-05-02T15:37:09;26.40;91.10
20915;DHT22;10617;52.032;5.298;2023-05-02T15:41:11;26.80;92.20
20915;DHT22;10617;52.032;5.298;2023-05-02T15:45:13;27.10;81.10
20915;DHT22;10617;52.032;5.298;2023-05-02T15:49:15;27.50;79.70
20915;DHT22;10617;52.032;5.298;2023-05-02T15:53:16;27.90;79.20
20915;DHT22;10617;52.032;5.298;2023-05-02T15:57:18;28.30;91.00
20915;DHT22;10617;52.032;5.298;2023-05-02T16:01:20;28.70;89.80
20915;DHT22;10617;52.032;5.298;2023-05-02T16:05:24;29.00;83.00
20915;DHT22;10617;52.032;5.298;2023-05-02T16:09:26;29.20;92.60
20915;DHT22;10617;52.032;5.298;2023-05-02T16:13:28;29.50;90.10
20915;DHT22;10617;52.032;5.298;2023-05-02T16:17:30;29.60;85.40
20915;DHT22;10617;52.032;5.298;2023-05-02T16:21:31;29.70;94.40
20915;DHT22;10617;52.032;5.298;2023-05-02T16:25:33;29.80;67.60
20915;DHT22;10617;52.032;5.298;2023-05-02T16:29:35;29.80;83.00
20915;DHT22;10617;52.032;5.298;2023-05-02T16:33:37;29.90;83.50
20915;DHT22;10617;52.032;5.298;2023-05-02T16:37:40;29.80;92.00
20915;DHT22;10617;52.032;5.298;2023-05-02T16:41:42;29.80;91.70
20915;DHT22;10617;52.032;5.298;2023-05-02T16:45:45;29.70;84.60
20915;DHT22;10617;52.032;5.298;2023-05-02T16:49:51;29.50;65.90
20915;DHT22;10617;52.032;5.298;2023-05-02T16:53:52;29.40;89.40
20915;DHT22;10617;52.032;5.298;2023-05-02T16:57:54;29.20;73.80
20915;DHT22;10617;52.032;5.298;2023-05-02T17:01:56;29.20;81.40
20915;DHT22;10617;52.032;5.298;2023-05-02T17:05:58;29.10;90.40
20915;DHT22;10617;52.032;5.298;2023-05-02T17:10:01;29.10;83.60
20915;DHT22;10617;52.032;5.298;2023-05-02T17:14:04;28.60;77.80
20915;DHT22;10617;52.032;5.298;2023-05-02T17:18:06;28.00;71.80
20915;DHT22;10617;52.032;5.298;2023-05-02T17:22:08;27.70;68.40
20915;DHT22;10617;52.032;5.298;2023-05-02T17:26:10;27.10;71.30
20915;DHT22;10617;52.032;5.298;2023-05-02T17:30:14;26.90;61.00
20915;DHT22;10617;52.032;5.298;2023-05-02T17:34:16;26.60;62.10
20915;DHT22;10617;52.032;5.298;2023-05-02T17:38:18;26.40;58.90
20915;DHT22;10617;52.032;5.298;2023-05-02T17:42:19;26.10;62.20
20915;DHT22;10617;52.032;5.298;2023-05-02T17:46:21;25.90;63.80
20915;DHT22;10617;52.032;5.298;2023-05-02T17:50:22;25.50;62.80
20915;DHT22;10617;52.032;5.298;2023-05-02T17:54:24;24.80;61.20
20915;DHT22;10617;52.032;5.298;2023-05-02T17:58:28;24.10;59.80
20915;DHT22;10617;52.032;5.298;2023-05-02T18:02:35;23.10;62.30
20915;DHT22;10617;52.032;5.298;2023-05-02T18:06:37;22.20;56.80
20915;DHT22;10617;52.032;5.298;2023-05-02T18:10:40;21.40;59.90
20915;DHT22;10617;52.032;5.298;2023-05-02T18:14:42;20.70;61.50
20915;DHT22;10617;52.032;5.298;2023-05-02T18:18:43;20.10;58.70
20915;DHT22;10617;52.032;5.298;2023-05-02T18:22:45;19.80;59.50
20915;DHT22;10617;52.032;5.298;2023-05-02T18:26:47;19.60;57.90
20915;DHT22;10617;52.032;5.298;2023-05-02T18:30:48;19.40;60.30
20915;DHT22;10617;52.032;5.298;2023-05-02T18:34:50;19.20;57.20
20915;DHT22;10617;52.032;5.298;2023-05-02T18:38:52;18.90;57.20
20915;DHT22;10617;52.032;5.298;2023-05-02T18:42:54;18.70;57.70
20915;DHT22;10617;52.032;5.298;2023-05-02T18:46:55;18.40;57.50
20915;DHT22;10617;52.032;5.298;2023-05-02T18:50:58;18.10;57.20
20915;DHT22;10617;52.032;5.298;2023-05-02T18:54:59;17.80;57.10
20915;DHT22;10617;52.032;5.298;2023-05-02T18:59:05;17.50;57.50
20915;DHT22;10617;52.032;5.298;2023-05-02T19:03:07;17.20;57.70
20915;DHT22;10617;52.032;5.298;2023-05-02T19:07:08;17.00;58.00
20915;DHT22;10617;52.032;5.298;2023-05-02T19:11:10;16.80;58.10
20915;DHT22;10617;52.032;5.298;2023-05-02T19:15:11;16.70;58.50
20915;DHT22;10617;52.032;5.298;2023-05-02T19:19:13;16.60;58.30
20915;DHT22;10617;52.032;5.298;2023-05-02T19:23:16;16.40;58.40
20915;DHT22;10617;52.032;5.298;2023-05-02T19:27:20;16.30;58.30
20915;DHT22;10617;52.032;5.298;2023-05-02T19:31:22;16.10;58.00
20915;DHT22;10617;52.032;5.298;2023-05-02T19:35:24;15.90;58.40
20915;DHT22;10617;52.032;5.298;2023-05-02T19:39:26;15.80;58.70
20915;DHT22;10617;52.032;5.298;2023-05-02T19:43:28;15.60;58.70
20915;DHT22;10617;52.032;5.298;2023-05-02T19:47:30;15.40;58.60
20915;DHT22;10617;52.032;5.298;2023-05-02T19:51:33;15.30;59.00
20915;DHT22;10617;52.032;5.298;2023-05-02T19:55:35;15.20;59.40
20915;DHT22;10617;52.032;5.298;2023-05-02T19:59:37;15.10;59.60
20915;DHT22;10617;52.032;5.298;2023-05-02T20:03:38;14.90;59.50
20915;DHT22;10617;52.032;5.298;2023-05-02T20:07:40;14.90;59.10
20915;DHT22;10617;52.032;5.298;2023-05-02T20:11:42;14.70;59.40
20915;DHT22;10617;52.032;5.298;2023-05-02T20:15:43;14.60;59.00
20915;DHT22;10617;52.032;5.298;2023-05-02T20:19:45;14.60;59.30
20915;DHT22;10617;52.032;5.298;2023-05-02T20:23:47;14.50;58.50
20915;DHT22;10617;52.032;5.298;2023-05-02T20:27:48;14.40;58.80
20915;DHT22;10617;52.032;5.298;2023-05-02T20:31:50;14.30;58.30
20915;DHT22;10617;52.032;5.298;2023-05-02T20:35:54;14.20;58.10
20915;DHT22;10617;52.032;5.298;2023-05-02T20:39:55;14.10;58.80
20915;DHT22;10617;52.032;5.298;2023-05-02T20:43:57;14.00;58.00
20915;DHT22;10617;52.032;5.298;2023-05-02T20:48:00;13.90;57.90
20915;DHT22;10617;52.032;5.298;2023-05-02T20:52:02;13.80;58.40
20915;DHT22;10617;52.032;5.298;2023-05-02T20:56:04;13.70;58.20
20915;DHT22;10617;52.032;5.298;2023-05-02T21:00:06;13.60;57.60
20915;DHT22;10617;52.032;5.298;2023-05-02T21:04:09;13.50;58.70
20915;DHT22;10617;52.032;5.298;2023-05-02T21:08:11;13.40;58.00
20915;DHT22;10617;52.032;5.298;2023-05-02T21:12:12;13.20;57.80
20915;DHT22;10617;52.032;5.298;2023-05-02T21:16:18;13.10;58.10
20915;DHT22;10617;52.032;5.298;2023-05-02T21:20:20;12.90;57.40
20915;DHT22;10617;52.032;5.298;2023-05-02T21:24:21;12.70;58.00
20915;DHT22;10617;52.032;5.298;2023-05-02T21:28:23;12.50;57.60
20915;DHT22;10617;52.032;5.298;2023-05-02T21:32:25;12.30;58.70
20915;DHT22;10617;52.032;5.298;2023-05-02T21:36:27;12.10;58.10
20915;DHT22;10617;52.032;5.298;2023-05-02T21:40:28;12.00;56.30
20915;DHT22;10617;52.032;5.298;2023-05-02T21:44:32;11.90;55.90
20915;DHT22;10617;52.032;5.298;2023-05-02T21:48:33;11.80;54.90
20915;DHT22;10617;52.032;5.298;2023-05-02T21:52:35;11.70;54.40
20915;DHT22;10617;52.032;5.298;2023-05-02T21:56:37;11.60;54.40
20915;DHT22;10617;52.032;5.298;2023-05-02T22:00:39;11.50;54.20
20915;DHT22;10617;52.032;5.298;2023-05-02T22:04:41;11.50;54.20
20915;DHT22;10617;52.032;5.298;2023-05-02T22:19:14;11.00;53.70
20915;DHT22;10617;52.032;5.298;2023-05-02T22:23:16;10.80;53.80
20915;DHT22;10617;52.032;5.298;2023-05-02T22:27:17;10.80;54.10
20915;DHT22;10617;52.032;5.298;2023-05-02T22:31:19;10.70;54.20
20915;DHT22;10617;52.032;5.298;2023-05-02T22:35:21;10.70;54.40
20915;DHT22;10617;52.032;5.298;2023-05-02T22:39:22;10.60;54.50
20915;DHT22;10617;52.032;5.298;2023-05-02T22:43:24;10.50;54.80
20915;DHT22;10617;52.032;5.298;2023-05-02T22:47:26;10.40;55.00
20915;DHT22;10617;52.032;5.298;2023-05-02T22:51:29;10.30;55.10
20915;DHT22;10617;52.032;5.298;2023-05-02T22:55:31;10.30;55.40
20915;DHT22;10617;52.032;5.298;2023-05-02T22:59:32;10.20;55.50
20915;DHT22;10617;52.032;5.298;2023-05-02T23:03:34;10.10;55.70
20915;DHT22;10617;52.032;5.298;2023-05-02T23:07:36;10.00;55.90
20915;DHT22;10617;52.032;5.298;2023-05-02T23:11:38;9.90;57.10
20915;DHT22;10617;52.032;5.298;2023-05-02T23:15:39;9.80;57.60
20915;DHT22;10617;52.032;5.298;2023-05-02T23:19:41;9.70;57.60
20915;DHT22;10617;52.032;5.298;2023-05-02T23:23:43;9.60;57.90
20915;DHT22;10617;52.032;5.298;2023-05-02T23:27:44;9.50;58.10
20915;DHT22;10617;52.032;5.298;2023-05-02T23:31:49;9.40;58.30
20915;DHT22;10617;52.032;5.298;2023-05-02T23:35:52;9.30;58.40
20915;DHT22;10617;52.032;5.298;2023-05-02T23:39:54;9.20;58.50
20915;DHT22;10617;52.032;5.298;2023-05-02T23:43:58;9.20;58.80
20915;DHT22;10617;52.032;5.298;2023-05-02T23:47:59;9.10;58.90
20915;DHT22;10617;52.032;5.298;2023-05-02T23:52:01;9.10;59.10
20915;DHT22;10617;52.032;5.298;2023-05-02T23:56:03;9.00;59.00
